Time;durP1;ratioP1;P1;durP2;ratioP2;P2;SDS_P1;SDS_P2;PMS_P1;PMS_P2;Temp;Humidity;BMP_temperature;BMP_pressure;BME280_temperature;BME280_humidity;BME280_pressure;Samples;Min_cycle;Max_cycle;Signal;HPM_P1;HPM_P2
2023/01/02 00:00:07;;;;;;;;;;;;;;;16.00;73.08;102197.94;7410446;19;1055;-64
2023/01/02 00:02:35;;;;;;;;;;;;;;;16.00;73.08;102195.25;7407275;19;1764;-64
2023/01/02 00:05:04;;;;;;;;;;;;;;;15.95;72.99;102206.16;7409440;19;1641;-65
2023/01/02 00:07:32;;;;;;;;;;;;;;;15.95;72.96;102200.81;7408740;19;1663;-64
2023/01/02 00:10:03;;;;;;;;;;;;;;;15.94;72.92;102209.78;7409267;19;1432;-64
2023/01/02 00:12:31;;;;;;;;;;;;;;;15.91;73.20;102226.78;7405876;19;1877;-64
2023/01/02 00:15:01;;;;;;;;;;;;;;;15.90;73.30;102202.88;7409510;19;1674;-64
2023/01/02 00:17:30;;;;;;;;;;;;;;;15.90;73.20;102203.72;7409307;19;1480;-64
2023/01/02 00:19:58;;;;;;;;;;;;;;;15.88;73.15;102218.97;7408908;19;1757;-64
2023/01/02 00:22:26;;;;;;;;;;;;;;;15.87;73.13;102203.88;7409553;19;1591;-64
2023/01/02 00:24:55;;;;;;;;;;;;;;;15.85;72.98;102213.75;7409533;19;1056;-64
2023/01/02 00:27:26;;;;;;;;;;;;;;;15.84;72.91;102206.72;7408377;19;1682;-64
2023/01/02 00:29:54;;;;;;;;;;;;;;;15.80;73.27;102206.97;7406854;19;1671;-63
2023/01/02 00:32:22;;;;;;;;;;;;;;;15.77;73.06;102210.63;7406830;19;1859;-64
2023/01/02 00:34:51;;;;;;;;;;;;;;;15.78;73.22;102207.03;7407471;19;1620;-64
2023/01/02 00:37:19;;;;;;;;;;;;;;;15.78;72.92;102209.72;7408633;19;1563;-64
2023/01/02 00:39:48;;;;;;;;;;;;;;;15.74;73.12;102189.47;7407688;19;1564;-64
2023/01/02 00:42:16;;;;;;;;;;;;;;;15.75;73.31;102199.19;7408230;19;1483;-64
2023/01/02 00:44:47;;;;;;;;;;;;;;;15.78;72.95;102191.03;7407599;19;1784;-64
2023/01/02 00:47:15;;;;;;;;;;;;;;;16.51;70.86;102177.34;7407821;19;1469;-64
2023/01/02 00:49:43;;;;;;;;;;;;;;;17.19;68.53;102178.91;7407475;19;1319;-64
2023/01/02 00:52:12;;;;;;;;;;;;;;;17.52;67.67;102185.91;7406402;19;1853;-64
2023/01/02 00:54:40;;;;;;;;;;;;;;;17.60;67.11;102178.28;7406978;19;1468;-64
2023/01/02 00:57:08;;;;;;;;;;;;;;;17.82;66.74;102173.34;7407681;19;1008;-64
2023/01/02 00:59:37;;;;;;;;;;;;;;;17.85;66.41;102167.84;7406962;19;1442;-64
2023/01/02 01:02:08;;;;;;;;;;;;;;;17.90;66.57;102178.28;7402141;19;1558;-64
2023/01/02 01:04:36;;;;;;;;;;;;;;;17.39;67.89;102175.94;7406659;19;1596;-64
2023/01/02 01:07:05;;;;;;;;;;;;;;;16.90;69.63;102173.44;7407369;19;1520;-64
2023/01/02 01:09:33;;;;;;;;;;;;;;;16.60;70.58;102174.19;7406320;19;1367;-64
2023/01/02 01:12:02;;;;;;;;;;;;;;;16.38;71.13;102177.19;7406840;19;1854;-64
2023/01/02 01:14:30;;;;;;;;;;;;;;;16.26;71.14;102178.69;7406610;19;1769;-64
2023/01/02 01:16:58;;;;;;;;;;;;;;;16.17;71.69;102179.19;7406790;19;1389;-64
2023/01/02 01:19:30;;;;;;;;;;;;;;;16.10;71.71;102177.81;7405794;19;1554;-64
2023/01/02 01:21:58;;;;;;;;;;;;;;;16.09;71.56;102181.41;7406776;19;1532;-64
2023/01/02 01:24:27;;;;;;;;;;;;;;;16.01;72.01;102171.13;7401432;19;930;-64
2023/01/02 01:26:55;;;;;;;;;;;;;;;15.98;71.97;102170.47;7405459;19;1489;-64
2023/01/02 01:29:23;;;;;;;;;;;;;;;15.96;72.05;102181.22;7405573;19;1629;-64
2023/01/02 01:31:52;;;;;;;;;;;;;;;15.96;71.89;102164.34;7405465;19;1323;-64
2023/01/02 01:34:20;;;;;;;;;;;;;;;15.91;71.74;102175.25;7403426;19;1897;-64
2023/01/02 01:36:51;;;;;;;;;;;;;;;15.88;71.93;102176.28;7404760;19;1311;-64
2023/01/02 01:39:19;;;;;;;;;;;;;;;15.86;71.68;102170.16;7406001;19;1359;-64
2023/01/02 01:41:48;;;;;;;;;;;;;;;15.85;72.04;102176.41;7407218;19;1550;-65
2023/01/02 01:44:31;;;;;;;;;;;;;;;15.83;71.87;102170.31;7404689;19;1453;-64
2023/01/02 01:46:59;;;;;;;;;;;;;;;15.86;71.99;102166.63;7405683;19;1437;-64
2023/01/02 01:49:30;;;;;;;;;;;;;;;15.79;72.10;102158.06;7405371;19;1500;-64
2023/01/02 01:52:05;;;;;;;;;;;;;;;15.82;72.17;102157.94;7405226;19;1611;-64
2023/01/02 01:54:37;;;;;;;;;;;;;;;15.79;72.28;102168.75;7403261;19;1847;-63
2023/01/02 01:57:08;;;;;;;;;;;;;;;15.75;71.95;102155.66;7406103;19;929;-63
2023/01/02 01:59:37;;;;;;;;;;;;;;;15.73;72.12;102161.06;7404792;19;1776;-64
2023/01/02 02:02:05;;;;;;;;;;;;;;;15.73;72.15;102158.41;7404396;19;1587;-64
2023/01/02 02:04:33;;;;;;;;;;;;;;;15.73;72.23;102155.72;7405390;19;1503;-64
2023/01/02 02:07:04;;;;;;;;;;;;;;;16.31;70.40;102135.72;7404962;19;1652;-64
2023/01/02 02:09:36;;;;;;;;;;;;;;;17.15;67.91;102145.28;7404695;19;1541;-64
2023/01/02 02:12:05;;;;;;;;;;;;;;;17.52;66.79;102140.44;7405112;19;1071;-64
2023/01/02 02:14:34;;;;;;;;;;;;;;;17.58;66.38;102145.41;7401726;19;1893;-65
2023/01/02 02:17:07;;;;;;;;;;;;;;;17.71;66.09;102143.72;7405447;19;1307;-64
2023/01/02 02:20:02;;;;;;;;;;;;;;;17.77;65.76;102129.97;7405068;19;1323;-65
2023/01/02 02:22:50;;;;;;;;;;;;;;;17.84;66.00;102139.34;7405766;19;1621;-64
2023/01/02 02:25:34;;;;;;;;;;;;;;;18.03;65.48;102146.28;7401283;19;1489;-64
2023/01/02 02:28:17;;;;;;;;;;;;;;;18.18;64.90;102131.91;7405921;19;1004;-64
2023/01/02 02:30:50;;;;;;;;;;;;;;;18.19;64.78;102144.34;7403593;19;1792;-64
2023/01/02 02:33:34;;;;;;;;;;;;;;;17.88;65.57;102143.56;7403273;19;1863;-64
2023/01/02 02:36:05;;;;;;;;;;;;;;;17.21;67.49;102143.13;7403378;19;1685;-64
2023/01/02 02:38:44;;;;;;;;;;;;;;;16.80;68.94;102129.47;7403551;19;1576;-64
2023/01/02 02:41:17;;;;;;;;;;;;;;;16.51;70.04;102131.97;7404249;19;1653;-64
2023/01/02 02:43:52;;;;;;;;;;;;;;;16.37;70.41;102135.38;7405220;19;1527;-64
2023/01/02 02:46:28;;;;;;;;;;;;;;;16.27;70.50;102135.06;7404745;19;1693;-64
2023/01/02 02:49:01;;;;;;;;;;;;;;;16.21;70.68;102130.03;7402271;19;1614;-64
2023/01/02 02:51:34;;;;;;;;;;;;;;;16.16;70.72;102134.78;7402923;19;1377;-64
2023/01/02 02:54:10;;;;;;;;;;;;;;;16.10;70.89;102135.13;7402403;19;1842;-64
2023/01/02 02:56:39;;;;;;;;;;;;;;;16.07;70.68;102135.25;7404892;19;959;-64
2023/01/02 02:59:07;;;;;;;;;;;;;;;16.08;70.89;102145.00;7402632;19;1529;-64
2023/01/02 03:01:38;;;;;;;;;;;;;;;16.02;71.04;102129.34;7397513;19;3348;-84
2023/01/02 03:04:14;;;;;;;;;;;;;;;15.98;70.73;102125.09;7405676;19;1471;-83
2023/01/02 03:07:06;;;;;;;;;;;;;;;15.91;70.96;102120.06;7404166;19;1179;-84
2023/01/02 03:09:40;;;;;;;;;;;;;;;15.93;71.18;102121.81;7402350;19;1478;-84
2023/01/02 03:12:17;;;;;;;;;;;;;;;15.87;71.13;102129.19;7403542;19;1045;-86
2023/01/02 03:14:53;;;;;;;;;;;;;;;15.83;71.15;102124.09;7403723;19;1910;-84
2023/01/02 03:17:30;;;;;;;;;;;;;;;15.84;71.05;102126.69;7404851;19;1687;-84
2023/01/02 03:20:02;;;;;;;;;;;;;;;15.79;71.08;102120.72;7406952;19;1706;-84
2023/01/02 03:22:33;;;;;;;;;;;;;;;15.79;71.28;102136.75;7407013;19;1564;-85
2023/01/02 03:25:01;;;;;;;;;;;;;;;15.77;71.04;102133.28;7407168;19;954;-84
2023/01/02 03:27:32;;;;;;;;;;;;;;;15.76;71.14;102146.72;7406307;19;1753;-85
2023/01/02 03:30:03;;;;;;;;;;;;;;;15.76;71.06;102144.91;7406200;19;1785;-86
2023/01/02 03:32:35;;;;;;;;;;;;;;;15.73;70.79;102141.53;7403485;19;1439;-84
2023/01/02 03:35:05;;;;;;;;;;;;;;;15.76;71.25;102144.91;7404075;19;1894;-85
2023/01/02 03:37:36;;;;;;;;;;;;;;;16.55;68.77;102136.19;7404275;19;1588;-84
2023/01/02 03:40:06;;;;;;;;;;;;;;;17.19;66.99;102137.03;7405039;19;1721;-85
2023/01/02 03:42:38;;;;;;;;;;;;;;;17.52;65.83;102127.94;7406264;19;1660;-84
2023/01/02 03:45:11;;;;;;;;;;;;;;;17.71;65.52;102133.03;7404759;19;1472;-85
2023/01/02 03:47:45;;;;;;;;;;;;;;;17.78;65.37;102150.41;7406321;19;1681;-84
2023/01/02 03:50:16;;;;;;;;;;;;;;;17.88;65.11;102151.59;7409783;19;1753;-85
2023/01/02 03:52:45;;;;;;;;;;;;;;;17.79;65.12;102137.91;7412932;19;1682;-86
2023/01/02 03:55:13;;;;;;;;;;;;;;;17.22;67.11;102154.69;7409542;19;1838;-83
2023/01/02 03:57:49;;;;;;;;;;;;;;;16.81;68.06;102147.19;7409915;19;1046;-85
2023/01/02 04:00:20;;;;;;;;;;;;;;;16.50;69.18;102148.94;7413443;19;944;-84
2023/01/02 04:02:56;;;;;;;;;;;;;;;16.35;69.70;102157.78;7409679;19;1504;-85
2023/01/02 04:05:29;;;;;;;;;;;;;;;16.23;70.06;102157.50;7413365;19;1605;-86
2023/01/02 04:08:00;;;;;;;;;;;;;;;16.15;70.18;102174.88;7412653;19;1575;-84
2023/01/02 04:10:30;;;;;;;;;;;;;;;16.07;70.28;102164.63;7410966;19;1681;-85
2023/01/02 04:13:01;;;;;;;;;;;;;;;16.00;70.01;102165.91;7409295;19;1555;-86
2023/01/02 04:15:32;;;;;;;;;;;;;;;15.98;70.27;102165.13;7411759;19;1453;-85
2023/01/02 04:18:07;;;;;;;;;;;;;;;15.91;70.59;102173.44;7408387;19;1509;-86
2023/01/02 04:20:39;;;;;;;;;;;;;;;15.90;70.37;102179.72;7413147;19;1060;-84
2023/01/02 04:23:10;;;;;;;;;;;;;;;15.84;70.44;102168.53;7413395;19;936;-84
2023/01/02 04:25:43;;;;;;;;;;;;;;;15.84;70.75;102177.38;7408409;19;1773;-84
2023/01/02 04:28:14;;;;;;;;;;;;;;;15.81;70.69;102187.34;7409807;19;1551;-85
2023/01/02 04:30:44;;;;;;;;;;;;;;;15.79;70.68;102192.75;7411771;19;1464;-85
2023/01/02 04:33:16;;;;;;;;;;;;;;;15.78;70.60;102172.38;7411769;19;1860;-85
2023/01/02 04:35:44;;;;;;;;;;;;;;;15.75;70.65;102185.00;7412257;19;1441;-85
2023/01/02 04:38:13;;;;;;;;;;;;;;;15.73;70.70;102174.41;7411110;19;1492;-84
2023/01/02 04:40:41;;;;;;;;;;;;;;;15.71;70.94;102200.25;7411009;19;1579;-86
2023/01/02 04:43:14;;;;;;;;;;;;;;;15.70;70.77;102207.41;7406562;19;1368;-86
2023/01/02 04:45:42;;;;;;;;;;;;;;;15.66;70.57;102186.31;7411084;19;968;-84
2023/01/02 04:48:10;;;;;;;;;;;;;;;15.66;70.77;102195.16;7410684;19;1551;-86
2023/01/02 04:50:41;;;;;;;;;;;;;;;15.63;70.75;102187.31;7411196;19;1472;-85
2023/01/02 04:53:10;;;;;;;;;;;;;;;15.60;70.64;102184.81;7411995;19;1051;-85
2023/01/02 04:55:38;;;;;;;;;;;;;;;15.82;70.69;102207.75;7409214;19;1837;-85
2023/01/02 04:58:07;;;;;;;;;;;;;;;16.66;67.66;102191.69;7407638;19;1038;-86
2023/01/02 05:00:35;;;;;;;;;;;;;;;17.24;65.97;102191.06;7409383;19;1560;-85
2023/01/02 05:03:04;;;;;;;;;;;;;;;17.49;65.05;102187.81;7408269;19;1742;-84
2023/01/02 05:05:32;;;;;;;;;;;;;;;17.56;65.17;102187.44;7411465;19;939;-84
2023/01/02 05:08:03;;;;;;;;;;;;;;;17.67;64.80;102185.84;7410544;19;1468;-85
2023/01/02 05:10:34;;;;;;;;;;;;;;;17.75;64.44;102198.78;7409996;19;1599;-84
2023/01/02 05:13:02;;;;;;;;;;;;;;;17.61;64.89;102193.41;7407043;19;1599;-85
2023/01/02 05:15:30;;;;;;;;;;;;;;;17.06;66.56;102202.81;7408410;19;1849;-85
2023/01/02 05:17:58;;;;;;;;;;;;;;;16.65;67.74;102197.94;7408175;19;1445;-85
2023/01/02 05:20:27;;;;;;;;;;;;;;;16.39;68.52;102194.91;7410983;19;936;-87
2023/01/02 05:25:38;;;;;;;;;;;;;;;16.09;69.59;102208.09;7407287;19;1639;-84
2023/01/02 05:28:06;;;;;;;;;;;;;;;16.01;69.64;102213.84;7409493;19;1552;-85
2023/01/02 05:30:35;;;;;;;;;;;;;;;15.96;69.85;102217.72;7410624;19;944;-84
2023/01/02 05:33:03;;;;;;;;;;;;;;;15.91;69.97;102232.13;7410030;19;1547;-84
2023/01/02 05:35:32;;;;;;;;;;;;;;;15.89;69.91;102228.66;7407801;19;1854;-85
2023/01/02 05:38:00;;;;;;;;;;;;;;;15.84;70.07;102214.72;7407093;19;1548;-85
2023/01/02 05:40:30;;;;;;;;;;;;;;;15.82;69.98;102221.09;7409515;19;1757;-85
2023/01/02 05:43:02;;;;;;;;;;;;;;;15.82;69.84;102235.28;7409588;19;1559;-84
2023/01/02 05:45:30;;;;;;;;;;;;;;;15.80;69.92;102239.84;7410196;19;1556;-84
2023/01/02 05:47:58;;;;;;;;;;;;;;;15.75;69.99;102236.53;7409338;19;1468;-84
2023/01/02 05:50:26;;;;;;;;;;;;;;;15.75;70.13;102230.34;7407628;19;1447;-86
2023/01/02 05:52:55;;;;;;;;;;;;;;;15.66;70.09;102224.50;7408895;19;1758;-86
2023/01/02 05:55:23;;;;;;;;;;;;;;;15.66;70.10;102228.97;7407982;19;1857;-84
2023/01/02 05:57:57;;;;;;;;;;;;;;;15.66;70.34;102227.16;7408560;19;1207;-84
2023/01/02 06:00:28;;;;;;;;;;;;;;;15.63;70.25;102227.31;7405933;19;1512;-85
2023/01/02 06:02:57;;;;;;;;;;;;;;;15.62;70.23;102230.09;7407561;19;1492;-85
2023/01/02 06:05:25;;;;;;;;;;;;;;;15.72;70.21;102236.66;7408619;19;988;-85
2023/01/02 06:07:53;;;;;;;;;;;;;;;16.56;67.45;102223.38;7409253;19;1686;-86
2023/01/02 06:10:22;;;;;;;;;;;;;;;17.17;65.52;102218.22;7406698;19;1773;-86
2023/01/02 06:12:50;;;;;;;;;;;;;;;17.52;64.64;102215.34;7407865;19;1413;-87
2023/01/02 06:15:18;;;;;;;;;;;;;;;17.55;64.55;102207.09;7405827;19;1857;-84
2023/01/02 06:17:49;;;;;;;;;;;;;;;17.68;64.18;102200.94;7409242;19;1014;-85
2023/01/02 06:20:17;;;;;;;;;;;;;;;17.80;63.84;102223.41;7407581;19;1796;-84
2023/01/02 06:22:45;;;;;;;;;;;;;;;17.68;64.36;102214.31;7406106;19;1820;-84
2023/01/02 06:25:14;;;;;;;;;;;;;;;17.19;65.93;102213.66;7407707;19;1332;-83
2023/01/02 06:27:42;;;;;;;;;;;;;;;16.75;67.09;102228.56;7408534;19;1144;-85
2023/01/02 06:30:11;;;;;;;;;;;;;;;16.46;67.88;102223.00;7407503;19;1575;-85
2023/01/02 06:32:40;;;;;;;;;;;;;;;16.36;68.14;102228.94;7407164;19;1789;-85
2023/01/02 06:35:11;;;;;;;;;;;;;;;16.44;68.63;102232.06;7406060;19;1849;-85
2023/01/02 06:37:43;;;;;;;;;;;;;;;17.20;66.79;102221.59;7406856;19;1120;-84
2023/01/02 06:40:13;;;;;;;;;;;;;;;17.84;65.38;102214.28;7406374;19;1436;-85
2023/01/02 06:42:44;;;;;;;;;;;;;;;18.10;65.01;102214.53;7406889;19;1710;-84
2023/01/02 06:45:13;;;;;;;;;;;;;;;18.16;65.65;102224.00;7406895;19;1266;-83
2023/01/02 06:47:42;;;;;;;;;;;;;;;18.25;65.38;102216.25;7406196;19;1503;-86
2023/01/02 06:50:14;;;;;;;;;;;;;;;18.29;65.05;102215.09;7406790;19;1682;-84
2023/01/02 06:52:42;;;;;;;;;;;;;;;18.30;65.42;102229.34;7405981;19;1307;-84
2023/01/02 06:55:10;;;;;;;;;;;;;;;18.33;65.63;102231.00;7404542;19;1875;-83
2023/01/02 06:57:38;;;;;;;;;;;;;;;18.52;65.23;102215.47;7408659;19;1670;-84
2023/01/02 07:00:07;;;;;;;;;;;;;;;18.57;65.15;102218.72;7411408;19;1079;-84
2023/01/02 07:02:35;;;;;;;;;;;;;;;18.65;64.96;102216.41;7409382;19;1586;-84
2023/01/02 07:05:04;;;;;;;;;;;;;;;18.63;65.05;102221.03;7406935;19;1592;-84
2023/01/02 07:07:35;;;;;;;;;;;;;;;18.53;65.44;102225.25;7420924;19;1469;-84
2023/01/02 07:10:03;;;;;;;;;;;;;;;18.50;65.71;102220.06;7428535;19;1474;-83
2023/01/02 07:12:31;;;;;;;;;;;;;;;18.65;65.45;102218.25;7408509;19;1142;-85
2023/01/02 07:15:00;;;;;;;;;;;;;;;18.66;65.55;102228.88;7407888;19;1849;-83
2023/01/02 07:17:29;;;;;;;;;;;;;;;18.56;65.56;102233.09;7409257;19;1678;-84
2023/01/02 07:19:57;;;;;;;;;;;;;;;18.54;65.22;102221.59;7408747;19;1273;-91
2023/01/02 07:22:25;;;;;;;;;;;;;;;18.56;64.29;102217.03;7410711;19;1736;-83
2023/01/02 07:24:57;;;;;;;;;;;;;;;18.78;63.94;102232.59;7420157;19;1321;-82
2023/01/02 07:27:25;;;;;;;;;;;;;;;18.82;63.84;102225.22;7416209;19;1770;-83
2023/01/02 07:29:54;;;;;;;;;;;;;;;18.89;63.79;102237.28;7412546;19;1673;-82
2023/01/02 07:32:23;;;;;;;;;;;;;;;18.82;63.81;102215.38;7416908;19;1573;-82
2023/01/02 07:34:59;;;;;;;;;;;;;;;18.98;63.38;102209.00;7412455;19;1853;-86
2023/01/02 07:37:29;;;;;;;;;;;;;;;18.91;63.50;102226.47;7414303;19;1381;-83
2023/01/02 07:40:00;;;;;;;;;;;;;;;19.05;63.42;102216.56;7419262;19;1459;-84
2023/01/02 07:42:29;;;;;;;;;;;;;;;19.41;62.78;102228.50;7427924;19;1276;-82
2023/01/02 07:44:57;;;;;;;;;;;;;;;19.48;62.67;102221.75;7431762;19;1741;-84
2023/01/02 07:47:25;;;;;;;;;;;;;;;19.57;62.37;102225.63;7425088;19;1719;-83
2023/01/02 07:49:54;;;;;;;;;;;;;;;19.60;62.38;102240.69;7417841;19;1488;-84
2023/01/02 07:52:22;;;;;;;;;;;;;;;19.56;62.11;102217.72;7419846;19;1389;-84
2023/01/02 07:54:50;;;;;;;;;;;;;;;19.59;61.78;102222.84;7418202;19;1826;-82
2023/01/02 07:57:21;;;;;;;;;;;;;;;19.59;61.98;102222.84;7414854;19;1395;-82
2023/01/02 07:59:50;;;;;;;;;;;;;;;19.54;61.52;102225.84;7417330;19;1594;-83
2023/01/02 08:02:18;;;;;;;;;;;;;;;19.44;62.08;102219.41;7415354;19;1575;-83
2023/01/02 08:04:47;;;;;;;;;;;;;;;19.63;61.47;102219.00;7419703;19;1281;-84
2023/01/02 08:07:15;;;;;;;;;;;;;;;19.86;60.84;102226.38;7421411;19;1583;-85
2023/01/02 08:09:45;;;;;;;;;;;;;;;19.88;61.06;102218.22;7415340;19;1474;-85
2023/01/02 08:12:14;;;;;;;;;;;;;;;20.00;60.68;102216.50;7414265;19;1368;-84
2023/01/02 08:14:45;;;;;;;;;;;;;;;19.94;61.08;102219.63;7413546;19;1850;-82
2023/01/02 08:17:14;;;;;;;;;;;;;;;19.84;61.02;102220.25;7414681;19;1643;-85
2023/01/02 08:19:42;;;;;;;;;;;;;;;19.79;61.32;102218.84;7409844;19;1782;-83
2023/01/02 08:22:10;;;;;;;;;;;;;;;19.73;61.53;102214.75;7412139;19;1274;-83
2023/01/02 08:24:38;;;;;;;;;;;;;;;19.69;61.71;102210.53;7411641;19;1436;-82
2023/01/02 08:27:08;;;;;;;;;;;;;;;19.48;61.80;102208.34;7409007;19;1520;-81
2023/01/02 08:29:36;;;;;;;;;;;;;;;19.47;61.74;102214.66;7410156;19;1536;-81
2023/01/02 08:32:08;;;;;;;;;;;;;;;19.44;61.88;102204.16;7410456;19;1516;-82
2023/01/02 08:34:37;;;;;;;;;;;;;;;19.46;61.77;102204.91;7407731;19;1860;-82
2023/01/02 08:37:05;;;;;;;;;;;;;;;19.44;62.18;102196.09;7410311;19;1583;-83
2023/01/02 08:39:34;;;;;;;;;;;;;;;19.57;62.06;102200.63;7409370;19;1318;-81
2023/01/02 08:42:04;;;;;;;;;;;;;;;19.56;62.67;102189.06;7409399;19;1491;-82
2023/01/02 08:44:33;;;;;;;;;;;;;;;19.64;62.33;102185.84;7411194;19;1796;-81
2023/01/02 08:47:01;;;;;;;;;;;;;;;19.70;62.55;102185.41;7409828;19;1586;-82
2023/01/02 08:49:32;;;;;;;;;;;;;;;19.86;61.76;102182.56;7406126;19;1626;-82
2023/01/02 08:52:00;;;;;;;;;;;;;;;19.93;61.76;102193.72;7409560;19;1366;-81
2023/01/02 08:54:28;;;;;;;;;;;;;;;19.86;61.89;102183.41;7409889;19;1449;-84
2023/01/02 08:56:57;;;;;;;;;;;;;;;19.86;61.89;102191.47;7407217;19;1833;-83
2023/01/02 08:59:26;;;;;;;;;;;;;;;19.80;62.23;102175.78;7410096;19;1792;-83
2023/01/02 09:01:54;;;;;;;;;;;;;;;19.83;62.26;102172.88;7408586;19;1556;-82
2023/01/02 09:04:23;;;;;;;;;;;;;;;19.89;62.39;102170.75;7407836;19;1270;-84
2023/01/02 09:06:53;;;;;;;;;;;;;;;19.81;61.86;102180.19;7408873;19;1390;-84
2023/01/02 09:09:22;;;;;;;;;;;;;;;19.63;61.99;102166.19;7410234;19;1689;-83
2023/01/02 09:11:51;;;;;;;;;;;;;;;19.37;63.21;102159.06;7406991;19;1307;-82
2023/01/02 09:14:20;;;;;;;;;;;;;;;18.93;64.16;102160.22;7405747;19;1757;-81
2023/01/02 09:16:49;;;;;;;;;;;;;;;18.46;65.36;102151.56;7402275;19;1880;-83
2023/01/02 09:19:17;;;;;;;;;;;;;;;18.37;65.31;102154.88;7399024;19;1532;-83
2023/01/02 09:21:45;;;;;;;;;;;;;;;18.23;65.09;102155.72;7398749;19;1393;-81
2023/01/02 09:24:16;;;;;;;;;;;;;;;18.19;65.68;102160.41;7402133;19;1004;-82
2023/01/02 09:26:44;;;;;;;;;;;;;;;18.08;65.75;102141.47;7401545;19;1785;-81
2023/01/02 09:29:13;;;;;;;;;;;;;;;18.02;66.22;102148.06;7404328;19;1645;-82
2023/01/02 09:31:42;;;;;;;;;;;;;;;17.95;66.25;102146.75;7408142;19;1544;-83
2023/01/02 09:34:10;;;;;;;;;;;;;;;17.92;66.43;102146.91;7407474;19;1646;-83
2023/01/02 09:36:40;;;;;;;;;;;;;;;17.90;66.63;102132.78;7407999;19;1852;-83
2023/01/02 09:39:08;;;;;;;;;;;;;;;17.85;66.66;102130.41;7407999;19;1524;-82
2023/01/02 09:41:40;;;;;;;;;;;;;;;17.81;66.66;102122.63;7407957;19;992;-83
2023/01/02 09:44:14;;;;;;;;;;;;;;;17.89;66.71;102109.66;7408520;19;1761;-82
2023/01/02 09:46:47;;;;;;;;;;;;;;;18.53;64.95;102117.25;7405124;19;1788;-82
2023/01/02 09:49:17;;;;;;;;;;;;;;;19.12;63.06;102119.63;7403827;19;1702;-82
2023/01/02 09:51:46;;;;;;;;;;;;;;;19.56;62.09;102110.38;7405710;19;1705;-81
2023/01/02 09:54:17;;;;;;;;;;;;;;;19.39;62.45;102104.34;7409008;19;1576;-83
2023/01/02 09:56:50;;;;;;;;;;;;;;;19.22;63.25;102115.38;7407131;19;1857;-82
2023/01/02 09:59:22;;;;;;;;;;;;;;;19.32;63.15;102091.44;7405910;19;1698;-83
2023/01/02 10:01:57;;;;;;;;;;;;;;;19.37;63.17;102100.91;7406490;19;1560;-81
2023/01/02 10:04:34;;;;;;;;;;;;;;;19.34;63.19;102103.81;7407529;19;1631;-81
2023/01/02 10:07:08;;;;;;;;;;;;;;;19.55;62.31;102104.13;7406375;19;1568;-83
2023/01/02 10:09:40;;;;;;;;;;;;;;;19.69;62.15;102105.84;7404630;19;1504;-82
2023/01/02 10:12:15;;;;;;;;;;;;;;;19.63;62.08;102101.78;7406606;19;1341;-82
2023/01/02 10:14:51;;;;;;;;;;;;;;;19.02;63.80;102095.25;7407908;19;1729;-81
2023/01/02 10:17:21;;;;;;;;;;;;;;;18.68;64.89;102095.66;7404354;19;1850;-81
2023/01/02 10:19:53;;;;;;;;;;;;;;;18.48;65.39;102086.25;7407268;19;1254;-81
2023/01/02 10:22:22;;;;;;;;;;;;;;;18.36;65.93;102088.84;7407575;19;1640;-82
2023/01/02 10:24:56;;;;;;;;;;;;;;;18.26;66.14;102097.50;7408666;19;1019;-81
2023/01/02 10:27:30;;;;;;;;;;;;;;;18.16;66.08;102082.94;7407760;19;1489;-83
2023/01/02 10:30:04;;;;;;;;;;;;;;;18.15;66.50;102088.44;7405908;19;1492;-82
2023/01/02 10:32:34;;;;;;;;;;;;;;;18.07;66.51;102083.56;7404702;19;1703;-83
2023/01/02 10:35:11;;;;;;;;;;;;;;;18.03;66.61;102079.34;7407035;19;1738;-81
2023/01/02 10:37:40;;;;;;;;;;;;;;;18.00;66.63;102079.53;7405483;19;1576;-81
2023/01/02 10:40:09;;;;;;;;;;;;;;;17.96;66.54;102068.16;7407130;19;1619;-81
2023/01/02 10:42:40;;;;;;;;;;;;;;;17.96;66.61;102078.88;7408007;19;1006;-83
2023/01/02 10:45:09;;;;;;;;;;;;;;;17.91;66.86;102064.94;7405780;19;1555;-82
2023/01/02 10:47:39;;;;;;;;;;;;;;;17.89;66.83;102080.22;7406231;19;1780;-83
2023/01/02 10:50:08;;;;;;;;;;;;;;;17.83;66.93;102062.72;7406584;19;1567;-84
2023/01/02 10:52:40;;;;;;;;;;;;;;;17.78;67.00;102054.09;7404060;19;1533;-82
2023/01/02 10:55:09;;;;;;;;;;;;;;;18.19;66.12;102057.81;7406273;19;1555;-81
2023/01/02 10:57:42;;;;;;;;;;;;;;;18.91;64.08;102065.66;7409373;19;1842;-83
2023/01/02 11:00:26;;;;;;;;;;;;;;;19.36;62.76;102067.00;7415535;19;942;-82
2023/01/02 11:02:55;;;;;;;;;;;;;;;19.51;62.43;102048.97;7411412;19;1354;-81
2023/01/02 11:05:24;;;;;;;;;;;;;;;19.04;63.68;102051.31;7413606;19;1611;-83
2023/01/02 11:07:53;;;;;;;;;;;;;;;18.97;64.22;102065.22;7414266;19;1694;-83
2023/01/02 11:10:29;;;;;;;;;;;;;;;18.83;61.95;102042.03;7408863;19;1789;-82
2023/01/02 11:13:03;;;;;;;;;;;;;;;19.10;63.26;102051.84;7409646;19;1438;-83
2023/01/02 11:15:33;;;;;;;;;;;;;;;19.28;62.56;102056.81;7411925;19;1858;-81
2023/01/02 11:18:02;;;;;;;;;;;;;;;19.52;62.05;102037.28;7411584;19;1634;-82
2023/01/02 11:20:32;;;;;;;;;;;;;;;19.56;62.05;102029.88;7414597;19;1015;-83
2023/01/02 11:23:02;;;;;;;;;;;;;;;19.28;62.88;102038.03;7413434;19;1556;-83
2023/01/02 11:25:34;;;;;;;;;;;;;;;18.96;63.79;102031.31;7410944;19;1782;-84
2023/01/02 11:28:05;;;;;;;;;;;;;;;18.59;64.49;102028.44;7413653;19;1343;-82
2023/01/02 11:30:38;;;;;;;;;;;;;;;18.47;64.58;102019.38;7415171;19;1098;-84
2023/01/02 11:33:18;;;;;;;;;;;;;;;18.43;65.62;102031.25;7411699;19;1365;-83
2023/01/02 11:35:48;;;;;;;;;;;;;;;18.31;65.52;102019.53;7413957;19;1864;-84
2023/01/02 11:38:17;;;;;;;;;;;;;;;18.25;66.17;102026.16;7414790;19;1334;-83
2023/01/02 11:40:59;;;;;;;;;;;;;;;18.18;66.26;102024.81;7412355;19;1811;-84
2023/01/02 11:43:48;;;;;;;;;;;;;;;18.09;66.50;102018.25;7410180;19;1766;-84
2023/01/02 11:46:30;;;;;;;;;;;;;;;18.01;66.63;102007.19;7410713;19;1290;-84
2023/01/02 11:49:02;;;;;;;;;;;;;;;17.92;66.98;102006.91;7409293;19;1631;-82
2023/01/02 11:51:31;;;;;;;;;;;;;;;17.80;67.41;102003.16;7412177;19;1219;-84
2023/01/02 11:54:01;;;;;;;;;;;;;;;17.75;67.51;101999.94;7409376;19;1668;-83
2023/01/02 11:56:32;;;;;;;;;;;;;;;17.67;67.55;101995.06;7412621;19;1863;-83
2023/01/02 11:59:04;;;;;;;;;;;;;;;17.61;67.90;101966.88;7412938;19;1525;-84
2023/01/02 12:01:38;;;;;;;;;;;;;;;17.61;67.84;101998.13;7408632;19;1500;-82
2023/01/02 12:04:06;;;;;;;;;;;;;;;17.75;67.60;101992.75;7408652;19;1402;-85
2023/01/02 12:06:43;;;;;;;;;;;;;;;18.68;65.02;101990.28;7411083;19;1571;-83
2023/01/02 12:09:13;;;;;;;;;;;;;;;19.41;62.89;101979.00;7405400;19;1614;-84
2023/01/02 12:11:48;;;;;;;;;;;;;;;19.97;61.20;101975.06;7411896;19;1066;-82
2023/01/02 12:14:20;;;;;;;;;;;;;;;19.85;61.67;101983.03;7406882;19;1719;-82
2023/01/02 12:16:53;;;;;;;;;;;;;;;19.83;61.78;101982.28;7410414;19;1873;-81
2023/01/02 12:19:51;;;;;;;;;;;;;;;19.90;61.82;101973.81;7410824;19;1485;-83
2023/01/02 12:22:31;;;;;;;;;;;;;;;19.67;62.69;101973.59;7407142;19;1533;-83
2023/01/02 12:25:08;;;;;;;;;;;;;;;19.98;62.12;101966.06;7408495;19;1540;-85
2023/01/02 12:27:40;;;;;;;;;;;;;;;20.30;61.29;101960.97;7407963;19;1689;-84
2023/01/02 12:30:15;;;;;;;;;;;;;;;20.18;61.52;101962.75;7409759;19;1781;-87
2023/01/02 12:32:59;;;;;;;;;;;;;;;19.94;62.08;101959.19;7412283;19;1571;-83
2023/01/02 12:35:50;;;;;;;;;;;;;;;19.32;63.65;101942.13;7409531;19;1695;-83
2023/01/02 12:38:24;;;;;;;;;;;;;;;18.84;65.39;101966.91;7411988;19;1469;-82
2023/01/02 12:41:00;;;;;;;;;;;;;;;18.55;66.26;101967.97;7411263;19;1813;-83
2023/01/02 12:43:41;;;;;;;;;;;;;;;18.30;66.88;101966.91;7409512;19;1587;-82
2023/01/02 12:46:18;;;;;;;;;;;;;;;18.16;67.10;101970.50;7409318;19;1784;-83
2023/01/02 12:49:01;;;;;;;;;;;;;;;18.07;67.66;101979.16;7409214;19;1513;-84
2023/01/02 12:51:36;;;;;;;;;;;;;;;17.97;68.04;101967.34;7407357;19;1603;-84
2023/01/02 12:54:18;;;;;;;;;;;;;;;17.87;68.06;101967.91;7409555;19;1753;-82
2023/01/02 12:56:57;;;;;;;;;;;;;;;17.86;67.96;101971.53;7408850;19;1853;-83
2023/01/02 13:02:25;;;;;;;;;;;;;;;17.80;67.64;101971.91;7406823;19;1615;-83
2023/01/02 13:04:57;;;;;;;;;;;;;;;17.78;67.87;101963.13;7409529;19;1765;-84
2023/01/02 13:07:30;;;;;;;;;;;;;;;17.71;68.22;101959.13;7409997;19;1492;-82
2023/01/02 13:09:59;;;;;;;;;;;;;;;17.64;67.98;101966.66;7409985;19;1832;-84
2023/01/02 13:12:28;;;;;;;;;;;;;;;17.63;68.25;101969.47;7408613;19;1457;-83